createdAt,value
2023-02-13T00:01:32.619Z,11.00
2023-02-13T00:04:02.009Z,11.10
2023-02-13T00:06:30.503Z,12.10
2023-02-13T00:08:58.968Z,11.20
2023-02-13T00:11:27.465Z,13.30
2023-02-13T00:13:57.332Z,14.10
2023-02-13T00:16:25.796Z,11.43
2023-02-13T00:18:54.187Z,12.60
2023-02-13T00:21:22.667Z,14.83
2023-02-13T00:23:51.221Z,11.53
2023-02-13T00:26:19.636Z,10.73
2023-02-13T00:28:48.727Z,10.97
2023-02-13T00:31:21.653Z,11.33
2023-02-13T00:33:51.080Z,10.40
2023-02-13T00:36:22.328Z,8.67
2023-02-13T00:38:51.733Z,10.43
2023-02-13T00:41:22.150Z,13.30
2023-02-13T00:43:51.080Z,10.97
2023-02-13T00:46:21.012Z,10.87
2023-02-13T00:48:49.554Z,10.77
2023-02-13T00:51:17.995Z,9.00
2023-02-13T00:53:46.436Z,10.47
2023-02-13T00:56:16.950Z,10.40
2023-02-13T00:58:46.978Z,11.50
2023-02-13T01:01:15.478Z,11.10
2023-02-13T01:03:45.392Z,11.63
2023-02-13T01:06:13.774Z,11.37
2023-02-13T01:08:43.136Z,12.37
2023-02-13T01:11:11.690Z,11.27
2023-02-13T01:13:40.582Z,12.13
2023-02-13T01:16:09.419Z,10.77
2023-02-13T01:18:38.206Z,10.97
2023-02-13T01:21:14.270Z,9.70
2023-02-13T01:23:42.778Z,11.63
2023-02-13T01:26:18.655Z,9.30
2023-02-13T01:28:47.351Z,9.30
2023-02-13T01:31:16.828Z,11.53
2023-02-13T01:33:45.906Z,10.30
2023-02-13T01:36:15.905Z,10.47
2023-02-13T01:38:44.716Z,12.80
2023-02-13T01:41:15.576Z,9.60
2023-02-13T01:43:53.699Z,10.83
2023-02-13T01:46:31.210Z,12.90
2023-02-13T01:49:05.159Z,11.53
2023-02-13T01:51:37.575Z,13.30
2023-02-13T01:54:09.492Z,12.53
2023-02-13T01:56:44.552Z,13.67
2023-02-13T01:59:16.474Z,13.97
2023-02-13T02:01:46.356Z,13.43
2023-02-13T02:04:18.684Z,15.87
2023-02-13T02:06:53.105Z,13.47
2023-02-13T02:09:32.521Z,13.87
2023-02-13T02:12:05.964Z,16.23
2023-02-13T02:14:37.750Z,16.70
2023-02-13T02:17:08.929Z,15.43
2023-02-13T02:19:46.168Z,14.33
2023-02-13T02:22:53.911Z,18.33
2023-02-13T02:26:13.530Z,14.27
2023-02-13T02:29:08.270Z,16.67
2023-02-13T02:32:22.693Z,14.47
2023-02-13T02:34:59.803Z,16.90
2023-02-13T02:37:47.365Z,14.60
2023-02-13T02:40:27.864Z,15.27
2023-02-13T02:43:14.970Z,15.87
2023-02-13T02:45:52.335Z,17.87
2023-02-13T02:48:49.321Z,17.77
2023-02-13T02:51:28.651Z,17.73
2023-02-13T02:54:30.513Z,15.57
2023-02-13T02:57:05.439Z,19.70
2023-02-13T02:59:52.982Z,20.17
2023-02-13T03:02:39.867Z,17.10
2023-02-13T03:05:38.136Z,18.53
2023-02-13T03:08:06.923Z,17.07
2023-02-13T03:10:57.447Z,18.33
2023-02-13T03:13:41.081Z,19.80
2023-02-13T03:16:35.939Z,19.53
2023-02-13T03:19:22.540Z,18.60
2023-02-13T03:22:16.114Z,20.60
2023-02-13T03:24:55.954Z,18.87
2023-02-13T03:27:54.593Z,18.47
2023-02-13T03:30:36.324Z,21.20
2023-02-13T03:33:39.175Z,20.10
2023-02-13T03:36:37.326Z,20.87
2023-02-13T03:39:13.188Z,22.27
2023-02-13T03:41:48.422Z,18.87
2023-02-13T03:44:23.889Z,19.90
2023-02-13T03:46:56.870Z,18.47
2023-02-13T03:49:48.506Z,19.60
2023-02-13T03:52:23.858Z,17.40
2023-02-13T03:55:15.617Z,21.50
2023-02-13T03:58:03.535Z,22.63
2023-02-13T04:00:37.909Z,23.90
2023-02-13T04:03:12.535Z,21.30
2023-02-13T04:05:46.207Z,19.50
2023-02-13T04:08:14.890Z,20.40
2023-02-13T04:10:52.255Z,19.73
2023-02-13T04:13:28.984Z,23.67
2023-02-13T04:16:04.405Z,21.10
2023-02-13T04:18:34.401Z,24.67
2023-02-13T04:21:05.123Z,17.03
2023-02-13T04:23:35.990Z,20.33
2023-02-13T04:26:11.956Z,21.83
2023-02-13T04:28:40.494Z,22.37
2023-02-13T04:31:09.043Z,17.03
2023-02-13T04:33:37.691Z,19.47
2023-02-13T04:36:07.075Z,20.70
2023-02-13T04:38:35.479Z,21.07
2023-02-13T04:41:03.921Z,20.53
2023-02-13T04:43:33.944Z,22.83
2023-02-13T04:46:02.473Z,18.60
2023-02-13T04:48:31.028Z,22.20
2023-02-13T04:50:59.925Z,17.77
2023-02-13T04:53:28.731Z,22.10
2023-02-13T04:55:57.169Z,19.43
2023-02-13T04:58:25.664Z,20.50
2023-02-13T05:00:55.803Z,22.17
2023-02-13T05:03:24.509Z,21.93
2023-02-13T05:05:53.117Z,19.57
2023-02-13T05:08:21.576Z,20.50
2023-02-13T05:10:50.362Z,22.20
2023-02-13T05:13:21.657Z,20.40
2023-02-13T05:15:50.516Z,21.23
2023-02-13T05:18:20.506Z,20.40
2023-02-13T05:21:10.150Z,20.70
2023-02-13T05:23:37.929Z,19.87
2023-02-13T05:26:06.582Z,22.63
2023-02-13T05:28:52.772Z,22.20
2023-02-13T05:31:21.451Z,21.90
2023-02-13T05:33:51.273Z,19.43
2023-02-13T05:36:19.686Z,18.50
2023-02-13T05:38:48.225Z,23.07
2023-02-13T05:41:16.802Z,22.17
2023-02-13T05:43:45.433Z,20.20
2023-02-13T05:46:14.355Z,20.10
2023-02-13T05:48:42.932Z,21.93
2023-02-13T05:51:12.621Z,24.73
2023-02-13T05:53:41.053Z,23.27
2023-02-13T05:56:09.503Z,23.17
2023-02-13T05:58:38.485Z,22.10
2023-02-13T06:01:07.491Z,23.83
2023-02-13T06:03:36.222Z,21.90
2023-02-13T06:06:04.778Z,23.70
2023-02-13T06:08:34.593Z,22.00
2023-02-13T06:11:03.490Z,21.20
2023-02-13T06:13:32.201Z,22.67
2023-02-13T06:16:00.749Z,20.20
2023-02-13T06:18:29.345Z,22.73
2023-02-13T06:20:59.783Z,25.53
2023-02-13T06:23:28.437Z,25.80
2023-02-13T06:25:58.585Z,20.87
2023-02-13T06:28:27.090Z,23.83
2023-02-13T06:30:56.197Z,22.30
2023-02-13T06:33:25.093Z,19.60
2023-02-13T06:35:53.756Z,23.73
2023-02-13T06:38:22.209Z,26.30
2023-02-13T06:40:51.338Z,23.43
2023-02-13T06:43:21.305Z,24.50
2023-02-13T06:45:51.932Z,26.43
2023-02-13T06:48:20.638Z,27.80
2023-02-13T06:50:49.217Z,26.63
2023-02-13T06:53:17.662Z,27.13
2023-02-13T06:55:46.136Z,26.30
2023-02-13T06:58:14.737Z,26.00
2023-02-13T07:00:44.497Z,25.97
2023-02-13T07:03:13.143Z,26.90
2023-02-13T07:05:42.334Z,28.63
2023-02-13T07:08:12.133Z,25.60
2023-02-13T07:10:41.154Z,23.97
2023-02-13T07:13:11.047Z,24.77
2023-02-13T07:15:40.389Z,29.60
2023-02-13T07:18:10.490Z,34.90
2023-02-13T07:20:38.884Z,22.67
2023-02-13T07:23:08.007Z,27.27
2023-02-13T07:25:36.747Z,28.03
2023-02-13T07:28:07.276Z,28.57
2023-02-13T07:30:37.353Z,30.67
2023-02-13T07:33:06.803Z,31.40
2023-02-13T07:35:37.752Z,32.00
2023-02-13T07:38:06.548Z,30.40
2023-02-13T07:40:34.972Z,28.00
2023-02-13T07:43:03.374Z,32.23
2023-02-13T07:45:32.152Z,31.73
2023-02-13T07:48:00.959Z,30.10
2023-02-13T07:50:30.158Z,32.83
2023-02-13T07:53:02.563Z,29.30
2023-02-13T07:55:32.805Z,28.80
2023-02-13T07:58:02.631Z,31.20
2023-02-13T08:00:31.282Z,26.53
2023-02-13T08:03:01.216Z,30.80
2023-02-13T08:05:30.359Z,32.83
2023-02-13T08:08:00.182Z,34.80
2023-02-13T08:10:46.225Z,28.77
2023-02-13T08:13:16.153Z,31.57
2023-02-13T08:15:45.087Z,31.13
2023-02-13T08:18:13.493Z,27.30
2023-02-13T08:20:41.931Z,28.47
2023-02-13T08:23:13.240Z,31.23
2023-02-13T08:25:41.769Z,31.10
2023-02-13T08:28:10.456Z,28.37
2023-02-13T08:30:38.937Z,29.40
2023-02-13T08:33:07.410Z,31.60
2023-02-13T08:35:36.226Z,24.77
2023-02-13T08:38:05.845Z,34.70
2023-02-13T08:40:35.710Z,34.33
2023-02-13T08:43:06.092Z,32.23
2023-02-13T08:45:35.090Z,31.50
2023-02-13T08:48:04.767Z,27.90
2023-02-13T08:50:34.638Z,30.40
2023-02-13T08:53:04.105Z,26.70
2023-02-13T08:55:32.742Z,31.30
2023-02-13T08:58:03.442Z,30.30
2023-02-13T09:00:32.232Z,26.30
2023-02-13T09:03:03.462Z,29.87
2023-02-13T09:05:32.711Z,28.60
2023-02-13T09:08:04.062Z,26.53
2023-02-13T09:10:33.793Z,25.63
2023-02-13T09:13:03.543Z,24.67
2023-02-13T09:15:32.396Z,26.20
2023-02-13T09:18:01.017Z,26.80
2023-02-13T09:20:29.521Z,24.37
2023-02-13T09:22:58.077Z,30.03
2023-02-13T09:25:26.713Z,27.60
2023-02-13T09:27:55.072Z,27.00
2023-02-13T09:30:25.196Z,26.30
2023-02-13T09:32:54.906Z,22.33
2023-02-13T09:35:24.162Z,25.80
2023-02-13T09:37:52.681Z,24.93
2023-02-13T09:40:27.941Z,21.77
2023-02-13T09:43:12.177Z,16.70
2023-02-13T09:45:43.967Z,16.10
2023-02-13T09:48:22.219Z,19.93
2023-02-13T09:50:50.717Z,17.60
2023-02-13T09:53:24.271Z,18.50
2023-02-13T09:56:04.595Z,15.73
2023-02-13T09:58:46.304Z,19.77
2023-02-13T10:01:28.257Z,19.77
2023-02-13T10:04:30.952Z,18.43
2023-02-13T10:07:17.768Z,22.50
2023-02-13T10:09:56.271Z,19.07
2023-02-13T10:12:48.437Z,19.00
2023-02-13T10:15:24.610Z,23.40
2023-02-13T10:18:00.045Z,18.50
2023-02-13T10:20:36.142Z,20.57
2023-02-13T10:23:17.407Z,21.10
2023-02-13T10:25:52.261Z,15.87
2023-02-13T10:28:34.340Z,14.87
2023-02-13T10:31:08.788Z,18.97
2023-02-13T10:33:49.115Z,17.80
2023-02-13T10:36:22.072Z,16.50
2023-02-13T10:38:59.214Z,19.27
2023-02-13T10:41:42.920Z,18.33
2023-02-13T10:44:28.377Z,13.67
2023-02-13T10:47:07.925Z,16.27
2023-02-13T10:49:58.010Z,17.80
2023-02-13T10:52:40.886Z,15.50
2023-02-13T10:55:34.652Z,20.30
2023-02-13T10:58:14.472Z,11.93
2023-02-13T11:00:50.764Z,9.60
2023-02-13T11:03:22.631Z,13.00
2023-02-13T11:05:54.282Z,13.23
2023-02-13T11:08:26.351Z,11.80
2023-02-13T11:10:54.728Z,13.53
2023-02-13T11:13:26.192Z,10.30
2023-02-13T11:16:04.184Z,10.70
2023-02-13T11:18:36.248Z,12.80
2023-02-13T11:21:09.941Z,10.63
2023-02-13T11:23:46.023Z,13.83
2023-02-13T11:26:23.402Z,12.07
2023-02-13T11:28:57.365Z,11.63
2023-02-13T11:31:30.354Z,11.67
2023-02-13T11:33:59.925Z,11.13
2023-02-13T11:36:33.477Z,11.97
2023-02-13T11:39:05.093Z,10.97
2023-02-13T11:41:42.348Z,15.60
2023-02-13T11:44:26.362Z,12.23
2023-02-13T11:46:57.373Z,10.90
2023-02-13T11:49:28.150Z,15.20
2023-02-13T11:51:59.981Z,10.90
2023-02-13T11:54:33.815Z,10.40
2023-02-13T11:57:06.149Z,12.00
2023-02-13T11:59:42.739Z,14.20
2023-02-13T12:02:18.279Z,12.77
2023-02-13T12:04:48.408Z,17.10
2023-02-13T12:07:26.373Z,10.83
2023-02-13T12:10:02.825Z,9.30
2023-02-13T12:12:40.656Z,8.67
2023-02-13T12:15:20.455Z,9.53
2023-02-13T12:17:58.470Z,9.70
2023-02-13T12:20:30.626Z,9.57
2023-02-13T12:23:09.051Z,9.10
2023-02-13T12:26:12.604Z,9.87
2023-02-13T12:29:01.122Z,9.30
2023-02-13T12:31:51.529Z,9.03
2023-02-13T12:35:26.552Z,7.77
2023-02-13T12:38:05.695Z,7.80
2023-02-13T12:40:59.722Z,6.97
2023-02-13T12:44:05.808Z,9.50
2023-02-13T12:46:43.662Z,7.80
2023-02-13T12:49:35.295Z,6.60
2023-02-13T12:52:22.398Z,7.63
2023-02-13T12:55:11.102Z,7.80
2023-02-13T12:58:00.618Z,8.33
2023-02-13T13:00:46.478Z,12.17
2023-02-13T13:03:41.261Z,7.23
2023-02-13T13:06:23.758Z,6.50
2023-02-13T13:09:26.788Z,6.27
2023-02-13T13:12:25.844Z,7.10
2023-02-13T13:15:03.338Z,6.90
2023-02-13T13:17:49.835Z,10.00
2023-02-13T13:20:51.555Z,9.30
2023-02-13T13:23:25.472Z,7.03
2023-02-13T13:26:07.867Z,5.93
2023-02-13T13:28:43.002Z,6.10
2023-02-13T13:31:13.584Z,5.77
2023-02-13T13:33:45.707Z,5.13
2023-02-13T13:36:25.107Z,4.73
2023-02-13T13:39:02.503Z,4.57
2023-02-13T13:41:42.840Z,4.53
2023-02-13T13:44:41.434Z,4.93
2023-02-13T13:47:27.060Z,3.90
2023-02-13T13:49:57.186Z,4.90
2023-02-13T13:52:29.409Z,3.90
2023-02-13T13:55:00.695Z,5.13
2023-02-13T13:58:03.604Z,5.00
2023-02-13T14:00:34.581Z,3.17
2023-02-13T14:03:26.406Z,4.13
2023-02-13T14:06:09.408Z,4.00
2023-02-13T14:09:03.866Z,6.10
2023-02-13T14:11:39.501Z,5.07
2023-02-13T14:14:51.021Z,5.37
2023-02-13T14:18:08.012Z,5.67
2023-02-13T14:20:41.762Z,4.63
2023-02-13T14:23:27.361Z,5.90
2023-02-13T14:26:38.247Z,5.53
2023-02-13T14:29:32.965Z,5.20
2023-02-13T14:32:15.339Z,6.80
2023-02-13T14:34:55.566Z,5.60
2023-02-13T14:37:34.577Z,6.23
2023-02-13T14:40:48.531Z,6.73
2023-02-13T14:43:36.513Z,7.20
2023-02-13T14:46:27.716Z,5.37
2023-02-13T14:49:02.615Z,7.43
2023-02-13T14:51:37.940Z,5.03
2023-02-13T14:54:17.154Z,4.80
2023-02-13T14:56:48.171Z,5.53
2023-02-13T14:59:19.349Z,6.10
2023-02-13T15:01:53.111Z,6.00
2023-02-13T15:04:31.624Z,8.20
2023-02-13T15:07:03.858Z,5.83
2023-02-13T15:09:38.852Z,5.60
2023-02-13T15:12:27.452Z,6.37
2023-02-13T15:14:57.265Z,8.90
2023-02-13T15:17:30.206Z,5.00
2023-02-13T15:20:06.628Z,6.23
2023-02-13T15:22:40.955Z,6.93
2023-02-13T15:25:10.559Z,6.57
2023-02-13T15:27:43.917Z,5.60
2023-02-13T15:30:23.805Z,5.33
2023-02-13T15:32:57.703Z,5.07
2023-02-13T15:35:30.954Z,5.43
2023-02-13T15:38:01.827Z,4.70
2023-02-13T15:40:34.538Z,5.37
2023-02-13T15:43:03.218Z,6.67
2023-02-13T15:45:32.057Z,5.40
2023-02-13T15:48:00.600Z,8.30
2023-02-13T15:50:32.523Z,6.20
2023-02-13T15:53:07.101Z,5.57
2023-02-13T15:55:38.530Z,5.43
2023-02-13T15:58:07.503Z,9.23
2023-02-13T16:00:39.319Z,6.63
2023-02-13T16:03:16.433Z,6.23
2023-02-13T16:05:48.008Z,5.93
2023-02-13T16:08:35.441Z,5.10
2023-02-13T16:11:24.983Z,5.13
2023-02-13T16:14:06.495Z,4.60
2023-02-13T16:16:45.211Z,7.37
2023-02-13T16:19:35.504Z,3.90
2023-02-13T16:22:16.412Z,5.10
2023-02-13T16:24:52.458Z,3.70
2023-02-13T16:27:27.344Z,3.57
2023-02-13T16:29:59.086Z,4.97
2023-02-13T16:32:31.874Z,4.30
2023-02-13T16:35:31.380Z,5.87
2023-02-13T16:38:03.171Z,5.60
2023-02-13T16:40:43.129Z,9.20
2023-02-13T16:43:43.040Z,7.73
2023-02-13T16:46:21.111Z,4.80
2023-02-13T16:49:03.584Z,83.10
2023-02-13T16:51:37.789Z,8.17
2023-02-13T16:54:18.023Z,5.83
2023-02-13T16:56:50.752Z,5.60
2023-02-13T16:59:32.131Z,7.30
2023-02-13T17:02:25.615Z,3.47
2023-02-13T17:04:56.855Z,6.57
2023-02-13T17:07:29.124Z,5.60
2023-02-13T17:10:03.147Z,4.50
2023-02-13T17:12:38.251Z,10.93
2023-02-13T17:15:12.334Z,4.37
2023-02-13T17:17:41.158Z,7.70
2023-02-13T17:20:17.607Z,5.30
2023-02-13T17:22:48.187Z,5.73
2023-02-13T17:25:21.966Z,6.00
2023-02-13T17:27:54.560Z,7.30
2023-02-13T17:30:25.827Z,8.07
2023-02-13T17:33:00.132Z,7.43
2023-02-13T17:35:28.654Z,6.40
2023-02-13T17:37:57.172Z,6.20
2023-02-13T17:40:29.678Z,5.80
2023-02-13T17:43:00.852Z,6.33
2023-02-13T17:45:31.741Z,8.83
2023-02-13T17:48:00.541Z,6.20
2023-02-13T17:50:31.433Z,9.27
2023-02-13T17:53:03.165Z,9.47
2023-02-13T17:55:34.196Z,10.27
2023-02-13T17:58:04.181Z,6.23
2023-02-13T18:00:35.508Z,8.00
2023-02-13T18:03:04.739Z,10.40
2023-02-13T18:05:33.580Z,6.97
2023-02-13T18:08:03.184Z,7.10
2023-02-13T18:10:34.365Z,9.73
2023-02-13T18:13:05.198Z,7.60
2023-02-13T18:15:35.100Z,9.97
2023-02-13T18:18:03.720Z,10.70
2023-02-13T18:20:32.426Z,8.43
2023-02-13T18:23:00.923Z,11.23
2023-02-13T18:25:29.685Z,8.33
2023-02-13T18:27:58.132Z,10.63
2023-02-13T18:30:28.225Z,11.40
2023-02-13T18:32:58.974Z,8.77
2023-02-13T18:35:28.047Z,10.03
2023-02-13T18:37:56.538Z,11.47
2023-02-13T18:40:24.898Z,9.63
2023-02-13T18:42:53.416Z,10.93
2023-02-13T18:45:21.875Z,9.83
2023-02-13T18:47:51.818Z,10.60
2023-02-13T18:50:21.340Z,15.13
2023-02-13T18:52:49.791Z,9.97
2023-02-13T18:55:18.470Z,10.77
2023-02-13T18:57:48.046Z,9.80
2023-02-13T19:00:18.779Z,12.27
2023-02-13T19:02:47.382Z,9.60
2023-02-13T19:05:17.460Z,10.03
2023-02-13T19:07:46.136Z,11.33
2023-02-13T19:10:15.641Z,13.20
2023-02-13T19:12:44.302Z,13.73
2023-02-13T19:15:12.752Z,10.97
2023-02-13T19:17:41.215Z,10.00
2023-02-13T19:20:11.092Z,12.00
2023-02-13T19:22:41.068Z,11.97
2023-02-13T19:25:09.758Z,11.00
2023-02-13T19:27:39.186Z,13.03
2023-02-13T19:30:09.622Z,11.50
2023-02-13T19:32:38.251Z,10.10
2023-02-13T19:35:07.764Z,13.43
2023-02-13T19:37:43.720Z,10.97
2023-02-13T19:40:15.187Z,11.63
2023-02-13T19:42:43.711Z,14.40
2023-02-13T19:45:12.573Z,12.33
2023-02-13T19:47:41.078Z,13.77
2023-02-13T19:50:10.466Z,12.77
2023-02-13T19:52:39.223Z,12.33
2023-02-13T19:55:08.393Z,11.77
2023-02-13T19:57:38.372Z,14.03
2023-02-13T20:00:09.594Z,13.13
2023-02-13T20:02:41.085Z,15.53
2023-02-13T20:05:10.147Z,14.23
2023-02-13T20:07:38.613Z,12.80
2023-02-13T20:10:09.690Z,13.77
2023-02-13T20:12:39.823Z,12.33
2023-02-13T20:15:09.233Z,15.23
2023-02-13T20:17:38.874Z,14.83
2023-02-13T20:20:09.110Z,16.37
2023-02-13T20:22:37.547Z,15.40
2023-02-13T20:25:06.958Z,16.97
2023-02-13T20:27:42.290Z,14.33
2023-02-13T20:30:14.543Z,14.13
2023-02-13T20:32:44.014Z,15.73
2023-02-13T20:35:12.580Z,15.70
2023-02-13T20:37:42.303Z,15.90
2023-02-13T20:40:12.002Z,16.13
2023-02-13T20:42:41.873Z,16.97
2023-02-13T20:45:11.022Z,15.33
2023-02-13T20:47:40.487Z,17.63
2023-02-13T20:50:10.252Z,15.07
2023-02-13T20:52:39.878Z,16.00
2023-02-13T20:55:09.649Z,17.43
2023-02-13T20:58:34.824Z,19.73
2023-02-13T21:01:05.633Z,15.60
2023-02-13T21:03:34.101Z,19.67
2023-02-13T21:06:02.703Z,18.93
2023-02-13T21:08:31.207Z,18.27
2023-02-13T21:11:02.784Z,20.37
2023-02-13T21:13:32.800Z,18.53
2023-02-13T21:16:11.096Z,19.30
2023-02-13T21:18:41.161Z,19.67
2023-02-13T21:21:11.774Z,18.27
2023-02-13T21:23:41.054Z,22.50
2023-02-13T21:26:13.434Z,19.27
2023-02-13T21:28:43.153Z,22.20
2023-02-13T21:31:16.618Z,17.77
2023-02-13T21:33:45.590Z,16.67
2023-02-13T21:36:14.718Z,16.30
2023-02-13T21:38:43.585Z,20.57
2023-02-13T21:41:14.356Z,18.20
2023-02-13T21:43:47.660Z,22.97
2023-02-13T21:46:20.995Z,17.73
2023-02-13T21:48:53.884Z,21.33
2023-02-13T21:51:23.761Z,20.40
2023-02-13T21:53:52.545Z,20.53
2023-02-13T21:56:23.718Z,20.13
2023-02-13T21:58:52.809Z,25.53
2023-02-13T22:01:27.128Z,16.40
2023-02-13T22:04:00.511Z,21.93
2023-02-13T22:06:32.070Z,21.07
2023-02-13T22:09:03.671Z,19.77
2023-02-13T22:11:33.096Z,21.80
2023-02-13T22:14:03.638Z,17.13
2023-02-13T22:16:36.036Z,16.30
2023-02-13T22:19:05.517Z,18.20
2023-02-13T22:21:36.710Z,21.33
2023-02-13T22:24:05.902Z,19.53
2023-02-13T22:26:36.975Z,17.90
2023-02-13T22:29:08.282Z,17.20
2023-02-13T22:31:38.662Z,16.70
2023-02-13T22:34:07.958Z,19.07
2023-02-13T22:36:39.620Z,18.50
2023-02-13T22:39:09.573Z,18.80
2023-02-13T22:41:38.792Z,16.47
2023-02-13T22:44:07.504Z,20.00
2023-02-13T22:46:37.628Z,20.83
2023-02-13T22:49:19.605Z,19.10
2023-02-13T22:51:48.216Z,24.20
2023-02-13T22:54:16.619Z,19.67
2023-02-13T22:56:45.463Z,19.37
2023-02-13T22:59:13.997Z,22.20
2023-02-13T23:01:43.809Z,20.33
2023-02-13T23:04:12.635Z,17.93
2023-02-13T23:06:41.085Z,19.10
2023-02-13T23:09:09.828Z,20.53
2023-02-13T23:11:55.899Z,22.07
2023-02-13T23:14:25.701Z,19.63
2023-02-13T23:17:13.171Z,18.20
2023-02-13T23:19:41.677Z,19.20
2023-02-13T23:22:12.462Z,22.63
2023-02-13T23:24:41.613Z,21.23
2023-02-13T23:27:10.521Z,19.00
2023-02-13T23:29:39.357Z,21.07
2023-02-13T23:32:09.610Z,20.23
2023-02-13T23:34:38.449Z,20.63
2023-02-13T23:37:06.988Z,24.97
2023-02-13T23:39:35.774Z,19.13
2023-02-13T23:42:04.566Z,17.90
2023-02-13T23:44:33.015Z,21.73
2023-02-13T23:47:01.472Z,20.53
2023-02-13T23:49:31.605Z,21.87
2023-02-13T23:52:00.360Z,22.57
2023-02-13T23:54:29.186Z,19.60
2023-02-13T23:56:58.278Z,19.30
2023-02-13T23:59:27.056Z,24.70
